Nilwood, Illinois
Current Conditions -  °F | °C
As of 11:35 PM on Tuesday 25 Nov 2014 (Local Time) from K3LF Reporting Station
Clear Clear  
Wind Chill: 19°   Ceiling: Unl
Heat Index: 26°   Visibility: 10mi
Dew Point: 23°   Wind: 6mph
Humidity: 89%   Direction: 130°SE
Pressure: 30.16"   Gusts: NA
Location:  39.4°N, 89.81°W
Report Text: K3LF 260535Z AUTO 13005KT 10SM CLR M04/M05 A3016 RMK AO2 T10361051
Loading
Personal Weather Stations






























Interactive Weather Map New forecast layout! Learn more

10-Day Weather Forecast

Advertisements
Track Severe Weather on mobile